Time;durP1;ratioP1;P1;durP2;ratioP2;P2;SDS_P1;SDS_P2;PMS_P1;PMS_P2;Temp;Humidity;BMP_temperature;BMP_pressure;BME280_temperature;BME280_humidity;BME280_pressure;Samples;Min_cycle;Max_cycle;Signal;HPM_P1;HPM_P2
2023/02/24 00:03:05;;;;;;;19.03;14.00;;;7.30;99.90;;;;;;5025905;28;20262;-64
2023/02/24 00:05:35;;;;;;;18.57;13.87;;;7.20;99.90;;;;;;5051807;28;20191;-63
2023/02/24 00:08:01;;;;;;;14.93;10.97;;;7.10;99.90;;;;;;5051326;28;20183;-63
2023/02/24 00:10:27;;;;;;;22.83;14.40;;;7.20;99.90;;;;;;5051202;28;20241;-64
2023/02/24 00:12:52;;;;;;;16.77;11.57;;;7.10;99.90;;;;;;5051477;28;20198;-64
2023/02/24 00:15:19;;;;;;;19.17;12.87;;;7.10;99.90;;;;;;5051658;28;20248;-64
2023/02/24 00:17:45;;;;;;;23.43;13.63;;;7.10;99.90;;;;;;5051293;28;20274;-64
2023/02/24 00:20:12;;;;;;;24.40;13.67;;;7.00;99.90;;;;;;5051023;28;20254;-64
2023/02/24 00:22:39;;;;;;;22.97;12.23;;;6.90;99.90;;;;;;5051374;28;20221;-63
2023/02/24 00:25:05;;;;;;;29.50;11.63;;;6.80;99.90;;;;;;5051284;28;20213;-63
2023/02/24 00:27:31;;;;;;;21.13;11.53;;;6.80;99.90;;;;;;5051217;28;20481;-64
2023/02/24 00:29:57;;;;;;;16.97;10.73;;;6.80;99.90;;;;;;5049602;28;20260;-63
2023/02/24 00:32:22;;;;;;;23.63;12.20;;;6.80;99.90;;;;;;5051720;28;20648;-64
2023/02/24 00:34:48;;;;;;;30.93;12.20;;;6.80;99.90;;;;;;5051302;28;20170;-64
2023/02/24 00:37:14;;;;;;;12.43;10.57;;;6.80;99.90;;;;;;5050084;28;20175;-64
2023/02/24 00:39:40;;;;;;;18.40;10.97;;;6.80;99.90;;;;;;5050915;28;20191;-64
2023/02/24 00:42:06;;;;;;;17.07;10.90;;;6.80;99.90;;;;;;5051270;28;20182;-64
2023/02/24 00:44:34;;;;;;;15.63;10.53;;;6.80;99.90;;;;;;5051128;28;20220;-64
2023/02/24 00:47:03;;;;;;;13.03;11.73;;;6.70;99.90;;;;;;5051371;28;20205;-64
2023/02/24 00:49:30;;;;;;;17.57;10.93;;;6.70;99.90;;;;;;5050080;28;20324;-63
2023/02/24 00:51:56;;;;;;;20.77;11.20;;;6.80;99.90;;;;;;5050999;28;20182;-64
2023/02/24 00:54:26;;;;;;;15.57;10.27;;;6.80;99.90;;;;;;5050955;28;20205;-64
2023/02/24 00:56:52;;;;;;;16.40;9.53;;;6.70;99.90;;;;;;5050928;28;20268;-63
2023/02/24 00:59:18;;;;;;;14.57;8.20;;;6.70;99.90;;;;;;5050341;28;20171;-63
2023/02/24 01:01:44;;;;;;;10.67;9.23;;;6.60;99.90;;;;;;5050952;28;20209;-64
2023/02/24 01:04:11;;;;;;;18.20;9.00;;;6.60;99.90;;;;;;5055237;28;20171;-63
2023/02/24 01:06:41;;;;;;;16.60;10.47;;;6.50;99.90;;;;;;5055116;28;20202;-63
2023/02/24 01:09:13;;;;;;;13.50;9.37;;;6.50;99.90;;;;;;5054710;28;20166;-64
2023/02/24 01:14:27;;;;;;;14.50;9.27;;;6.50;99.90;;;;;;5041185;28;20226;-64
2023/02/24 01:16:54;;;;;;;20.60;10.10;;;6.60;99.90;;;;;;5055206;28;20611;-64
2023/02/24 01:19:23;;;;;;;13.33;11.77;;;6.60;99.90;;;;;;5054425;28;20253;-63
2023/02/24 01:21:53;;;;;;;20.93;11.17;;;6.50;99.90;;;;;;5055225;28;20228;-64
2023/02/24 01:24:23;;;;;;;21.30;10.73;;;6.40;99.90;;;;;;5054817;28;20645;-63
2023/02/24 01:26:48;;;;;;;19.40;11.67;;;6.40;99.90;;;;;;5055077;28;20481;-63
2023/02/24 01:29:14;;;;;;;28.97;11.60;;;6.40;99.90;;;;;;5054238;28;20240;-64
2023/02/24 01:31:42;;;;;;;12.20;9.50;;;6.40;99.90;;;;;;5054945;28;20182;-64
2023/02/24 01:34:11;;;;;;;18.43;11.40;;;6.40;99.90;;;;;;5054697;28;20581;-63
2023/02/24 01:36:39;;;;;;;17.00;10.57;;;6.30;99.90;;;;;;5054403;28;20277;-63
2023/02/24 01:39:09;;;;;;;13.97;10.43;;;6.30;99.90;;;;;;5054554;28;20498;-64
2023/02/24 01:41:37;;;;;;;18.10;9.37;;;6.40;99.90;;;;;;5034616;28;20665;-64
2023/02/24 01:44:21;;;;;;;17.17;10.83;;;6.40;99.90;;;;;;5050398;28;20175;-64
2023/02/24 01:46:52;;;;;;;14.10;9.90;;;6.40;99.90;;;;;;5054621;28;20542;-63
2023/02/24 01:49:33;;;;;;;17.07;9.70;;;6.40;99.90;;;;;;5054158;28;20550;-63
2023/02/24 01:52:10;;;;;;;16.60;8.87;;;6.40;99.90;;;;;;5054463;28;20217;-64
2023/02/24 01:55:08;;;;;;;10.33;7.97;;;6.40;99.90;;;;;;5054052;28;20542;-63
2023/02/24 01:57:37;;;;;;;12.20;7.60;;;6.40;99.90;;;;;;5054627;28;20209;-64
2023/02/24 02:00:11;;;;;;;10.60;7.63;;;6.30;99.90;;;;;;5053636;28;20179;-64
2023/02/24 02:02:41;;;;;;;20.60;7.50;;;6.30;99.90;;;;;;5054059;28;20175;-64
2023/02/24 02:05:08;;;;;;;8.70;8.00;;;6.30;99.90;;;;;;5053944;28;20198;-63
2023/02/24 02:07:37;;;;;;;11.47;8.60;;;6.30;99.90;;;;;;5053898;28;20300;-64
2023/02/24 02:10:05;;;;;;;9.30;8.50;;;6.30;99.90;;;;;;5052534;28;20198;-63
2023/02/24 02:12:37;;;;;;;14.77;8.57;;;6.30;99.90;;;;;;5053398;28;20175;-64
2023/02/24 02:15:04;;;;;;;24.70;8.97;;;6.20;99.90;;;;;;5052553;28;20187;-63
2023/02/24 02:17:53;;;;;;;16.40;8.33;;;6.20;99.90;;;;;;5053388;28;20511;-64
2023/02/24 02:20:55;;;;;;;20.27;8.97;;;6.20;99.90;;;;;;5053577;28;20179;-64
2023/02/24 02:23:39;;;;;;;11.53;7.67;;;6.10;99.90;;;;;;5053534;28;20178;-64
2023/02/24 02:26:19;;;;;;;17.10;7.67;;;6.00;99.90;;;;;;5053948;28;20672;-63
2023/02/24 02:28:53;;;;;;;9.57;7.27;;;5.90;99.90;;;;;;5053419;28;20186;-63
2023/02/24 02:31:34;;;;;;;8.67;6.87;;;5.80;99.90;;;;;;5053028;28;20212;-63
2023/02/24 02:34:23;;;;;;;10.33;6.73;;;5.70;99.90;;;;;;5053637;28;20186;-64
2023/02/24 02:37:16;;;;;;;36.47;8.77;;;5.60;99.90;;;;;;5053633;28;20561;-64
2023/02/24 02:40:21;;;;;;;17.43;7.50;;;5.60;99.90;;;;;;5039710;28;20231;-64
2023/02/24 02:42:56;;;;;;;8.70;6.87;;;5.60;99.90;;;;;;5053123;28;20674;-64
2023/02/24 02:45:29;;;;;;;11.17;6.43;;;5.50;99.90;;;;;;5053092;28;20205;-64
2023/02/24 02:48:09;;;;;;;17.57;7.60;;;5.50;99.90;;;;;;5052974;28;20214;-64
2023/02/24 02:50:47;;;;;;;9.47;8.60;;;5.50;99.90;;;;;;5052747;28;20230;-64
2023/02/24 02:53:27;;;;;;;8.60;7.73;;;5.50;99.90;;;;;;5053176;28;20178;-63
2023/02/24 02:55:59;;;;;;;10.30;7.47;;;5.40;99.90;;;;;;5052130;28;20260;-64
2023/02/24 02:58:29;;;;;;;8.17;7.03;;;5.50;99.90;;;;;;5052545;28;20185;-64
2023/02/24 03:01:01;;;;;;;11.40;7.70;;;5.50;99.90;;;;;;5039960;28;20643;-64
2023/02/24 03:03:35;;;;;;;9.47;7.77;;;5.50;99.90;;;;;;5052593;28;20258;-64
2023/02/24 03:06:12;;;;;;;12.87;7.67;;;5.50;99.90;;;;;;5053208;28;20289;-64
2023/02/24 03:08:42;;;;;;;7.57;6.80;;;5.50;99.90;;;;;;5052803;28;20604;-64
2023/02/24 03:11:13;;;;;;;7.47;6.80;;;5.50;99.90;;;;;;5052958;28;20278;-64
2023/02/24 03:13:41;;;;;;;7.97;6.53;;;5.60;99.90;;;;;;5041077;28;20179;-64
2023/02/24 03:16:10;;;;;;;15.37;7.43;;;5.60;99.90;;;;;;5033105;28;20183;-64
2023/02/24 03:18:44;;;;;;;6.67;6.27;;;5.60;99.90;;;;;;5032950;28;20218;-64
2023/02/24 03:21:18;;;;;;;13.57;6.97;;;5.50;99.90;;;;;;5032784;28;20232;-64
2023/02/24 03:23:49;;;;;;;6.97;6.37;;;5.50;99.90;;;;;;5034288;28;20607;-64
2023/02/24 03:26:22;;;;;;;9.87;6.20;;;5.50;99.90;;;;;;5052463;28;20195;-65
2023/02/24 03:29:00;;;;;;;6.27;5.77;;;5.50;99.90;;;;;;5052356;28;20185;-64
2023/02/24 03:31:32;;;;;;;13.20;6.53;;;5.40;99.90;;;;;;5051994;28;20206;-65
2023/02/24 03:34:27;;;;;;;11.00;6.40;;;5.40;99.90;;;;;;5051929;28;20178;-64
2023/02/24 03:36:53;;;;;;;20.90;7.40;;;5.40;99.90;;;;;;5051206;28;20195;-65
2023/02/24 03:39:20;;;;;;;22.17;6.87;;;5.40;99.90;;;;;;5049711;28;20185;-64
2023/02/24 03:42:01;;;;;;;6.83;6.07;;;5.40;99.90;;;;;;5051162;28;20554;-63
2023/02/24 03:44:27;;;;;;;7.83;6.47;;;5.40;99.90;;;;;;5051768;28;20170;-64
2023/02/24 03:46:54;;;;;;;15.97;6.50;;;5.40;99.90;;;;;;5052522;28;20221;-64
2023/02/24 03:49:21;;;;;;;14.33;6.77;;;5.40;99.90;;;;;;5051563;28;20166;-64
2023/02/24 03:52:11;;;;;;;6.53;5.93;;;5.40;99.90;;;;;;5051626;28;20274;-64
2023/02/24 03:54:42;;;;;;;9.93;5.97;;;5.40;99.90;;;;;;5051590;28;20210;-64
2023/02/24 03:57:18;;;;;;;20.60;7.83;;;5.40;99.90;;;;;;5052021;28;20224;-64
2023/02/24 03:59:47;;;;;;;6.67;6.17;;;5.40;99.90;;;;;;5051306;28;20588;-64
2023/02/24 04:02:27;;;;;;;11.80;7.23;;;5.40;99.90;;;;;;5051634;28;20246;-64
2023/02/24 04:05:09;;;;;;;8.33;6.50;;;5.30;99.90;;;;;;5051787;28;20175;-64
2023/02/24 04:07:38;;;;;;;7.60;6.43;;;5.20;99.90;;;;;;5051652;28;20270;-64
2023/02/24 04:10:32;;;;;;;8.27;7.17;;;5.20;99.90;;;;;;5051653;28;20194;-64
2023/02/24 04:13:13;;;;;;;12.33;7.70;;;5.10;99.90;;;;;;5051777;28;20178;-64
2023/02/24 04:15:47;;;;;;;12.07;7.17;;;5.10;99.90;;;;;;5031752;28;20191;-64
2023/02/24 04:18:15;;;;;;;7.10;6.60;;;5.10;99.90;;;;;;5049646;28;20196;-64
2023/02/24 04:20:42;;;;;;;8.30;7.53;;;5.10;99.90;;;;;;5049027;28;20580;-64
2023/02/24 04:23:13;;;;;;;14.07;8.73;;;5.10;99.90;;;;;;5051609;28;20179;-64
2023/02/24 04:25:43;;;;;;;9.83;8.10;;;5.10;99.90;;;;;;5051928;28;20362;-64
2023/02/24 04:28:10;;;;;;;14.57;11.30;;;5.10;99.90;;;;;;5051638;28;20604;-64
2023/02/24 04:30:40;;;;;;;11.53;9.83;;;5.00;99.90;;;;;;5050934;28;20202;-64
2023/02/24 04:33:06;;;;;;;12.63;7.77;;;5.00;99.90;;;;;;5050492;28;20206;-64
2023/02/24 04:35:32;;;;;;;19.60;9.73;;;5.00;99.90;;;;;;5049837;28;20627;-64
2023/02/24 04:37:59;;;;;;;11.07;9.83;;;5.00;99.90;;;;;;5050345;28;20195;-64
2023/02/24 04:40:25;;;;;;;16.27;11.57;;;5.00;99.90;;;;;;5051144;28;20190;-64
2023/02/24 04:42:52;;;;;;;11.47;9.17;;;5.00;99.90;;;;;;5051301;28;20257;-64
2023/02/24 04:45:22;;;;;;;58.73;27.50;;;5.00;99.90;;;;;;5050778;28;20195;-65
2023/02/24 04:47:50;;;;;;;16.43;10.90;;;5.00;99.90;;;;;;5051288;28;20226;-65
2023/02/24 04:50:25;;;;;;;7.67;7.13;;;5.00;99.90;;;;;;5050818;28;20198;-65
2023/02/24 04:52:59;;;;;;;8.67;7.03;;;4.90;99.90;;;;;;5051011;28;20537;-64
2023/02/24 04:55:28;;;;;;;12.90;6.93;;;4.90;99.90;;;;;;5050495;28;20277;-64
2023/02/24 04:57:55;;;;;;;8.63;7.60;;;4.80;99.90;;;;;;5051296;28;20190;-63
2023/02/24 05:00:25;;;;;;;12.77;7.77;;;4.70;99.90;;;;;;5050323;28;20186;-64
2023/02/24 05:02:55;;;;;;;8.10;7.40;;;4.60;99.90;;;;;;5051073;28;20240;-64
2023/02/24 05:05:24;;;;;;;9.00;8.23;;;4.50;99.90;;;;;;5050980;28;20274;-64
2023/02/24 05:08:05;;;;;;;12.43;10.87;;;4.40;99.90;;;;;;5050932;28;20171;-64
2023/02/24 05:10:39;;;;;;;9.33;7.97;;;4.40;99.90;;;;;;5050580;28;20210;-63
2023/02/24 05:13:06;;;;;;;9.73;9.03;;;4.30;99.90;;;;;;5050884;28;20278;-64
2023/02/24 05:15:32;;;;;;;10.60;8.33;;;4.30;99.90;;;;;;5050822;28;20193;-64
2023/02/24 05:17:59;;;;;;;13.17;8.77;;;4.30;99.90;;;;;;5051035;28;20687;-64
2023/02/24 05:23:12;;;;;;;8.30;7.47;;;4.30;99.90;;;;;;5051059;28;20324;-64
2023/02/24 05:25:41;;;;;;;9.40;6.63;;;4.40;99.90;;;;;;5050681;28;20289;-64
2023/02/24 05:28:08;;;;;;;6.90;6.27;;;4.40;99.90;;;;;;5050677;28;20190;-64
2023/02/24 05:30:34;;;;;;;7.13;6.70;;;4.40;99.90;;;;;;5050078;28;20341;-64
2023/02/24 05:33:00;;;;;;;8.57;8.07;;;4.40;99.90;;;;;;5050864;28;20175;-65
2023/02/24 05:35:26;;;;;;;6.57;6.23;;;4.40;99.90;;;;;;5050325;28;20255;-64
2023/02/24 05:37:53;;;;;;;9.00;6.87;;;4.50;99.90;;;;;;5050959;28;20173;-64
2023/02/24 05:40:22;;;;;;;8.17;7.17;;;4.50;99.90;;;;;;5050174;28;20254;-64
2023/02/24 05:42:48;;;;;;;16.60;7.40;;;4.50;99.90;;;;;;5050613;28;20536;-64
2023/02/24 05:45:14;;;;;;;6.70;6.20;;;4.40;99.90;;;;;;5050470;28;20640;-65
2023/02/24 05:47:45;;;;;;;15.27;6.50;;;4.40;99.90;;;;;;5050178;28;20268;-64
2023/02/24 05:50:11;;;;;;;7.63;6.50;;;4.40;99.90;;;;;;5054142;28;20325;-64
2023/02/24 05:52:37;;;;;;;8.03;7.10;;;4.40;99.90;;;;;;5054505;28;20178;-64
2023/02/24 05:55:05;;;;;;;14.73;7.03;;;4.40;99.90;;;;;;5054048;28;20615;-64
2023/02/24 05:57:34;;;;;;;9.70;7.40;;;4.50;99.90;;;;;;5053809;28;20236;-64
2023/02/24 06:00:11;;;;;;;8.80;6.63;;;4.40;99.90;;;;;;5053928;28;20183;-64
2023/02/24 06:02:36;;;;;;;13.27;6.33;;;4.40;99.90;;;;;;5053720;28;20174;-64
2023/02/24 06:05:03;;;;;;;13.63;6.43;;;4.40;99.90;;;;;;5053966;28;20205;-64
2023/02/24 06:07:33;;;;;;;11.57;6.43;;;4.40;99.90;;;;;;5054048;28;20212;-65
2023/02/24 06:09:59;;;;;;;12.33;6.43;;;4.30;99.90;;;;;;5052173;28;20692;-64
2023/02/24 06:12:30;;;;;;;6.83;6.33;;;4.30;99.90;;;;;;5037361;28;20186;-64
2023/02/24 06:14:57;;;;;;;8.10;6.27;;;4.30;99.90;;;;;;5053492;28;20202;-64
2023/02/24 06:17:23;;;;;;;7.20;6.70;;;4.30;99.90;;;;;;5054054;28;20536;-64
2023/02/24 06:19:50;;;;;;;12.33;6.77;;;4.30;99.90;;;;;;5053140;28;20175;-64
2023/02/24 06:22:19;;;;;;;6.93;6.20;;;4.30;99.90;;;;;;5054341;28;20680;-63
2023/02/24 06:24:47;;;;;;;7.60;7.07;;;4.30;99.90;;;;;;5053853;28;20190;-63
2023/02/24 06:27:18;;;;;;;7.70;7.20;;;4.30;99.90;;;;;;5052511;28;20182;-64
2023/02/24 06:29:49;;;;;;;8.80;7.17;;;4.30;99.90;;;;;;5052191;28;20707;-64
2023/02/24 06:32:22;;;;;;;7.27;6.80;;;4.30;99.90;;;;;;5053811;28;20178;-64
2023/02/24 06:34:48;;;;;;;8.00;7.50;;;4.30;99.90;;;;;;5040756;28;20186;-63
2023/02/24 06:37:14;;;;;;;13.00;6.60;;;4.30;99.90;;;;;;5053245;28;20177;-63
2023/02/24 06:39:41;;;;;;;7.27;6.53;;;4.30;99.90;;;;;;5052915;28;20726;-64
2023/02/24 06:42:07;;;;;;;6.73;6.33;;;4.40;99.90;;;;;;5053704;28;20194;-64
2023/02/24 06:44:35;;;;;;;8.03;6.67;;;4.50;99.90;;;;;;5053135;28;20198;-64
2023/02/24 06:47:01;;;;;;;10.40;6.80;;;4.50;99.90;;;;;;5053160;28;20679;-64
2023/02/24 06:49:28;;;;;;;8.87;6.40;;;4.50;99.90;;;;;;5052647;28;20175;-64
2023/02/24 06:51:56;;;;;;;10.50;7.00;;;4.60;99.90;;;;;;5052984;28;20170;-63
2023/02/24 06:54:31;;;;;;;8.60;6.10;;;4.70;99.90;;;;;;5055037;28;20179;-64
2023/02/24 06:57:02;;;;;;;10.30;7.63;;;4.70;99.90;;;;;;5051186;28;20205;-64
2023/02/24 06:59:27;;;;;;;7.93;7.30;;;4.80;99.90;;;;;;5051585;28;20178;-64
2023/02/24 07:01:58;;;;;;;14.83;8.00;;;4.90;99.90;;;;;;5052552;28;20250;-64
2023/02/24 07:04:23;;;;;;;6.93;6.17;;;5.00;99.90;;;;;;5052780;28;20179;-64
2023/02/24 07:06:52;;;;;;;7.90;7.43;;;5.00;99.90;;;;;;5052847;28;20291;-64
2023/02/24 07:09:20;;;;;;;25.23;7.00;;;5.10;99.90;;;;;;5052478;28;20183;-64
2023/02/24 07:11:51;;;;;;;6.70;6.10;;;5.00;99.90;;;;;;5052471;28;20183;-64
2023/02/24 07:14:18;;;;;;;9.67;5.93;;;5.10;99.90;;;;;;5052228;28;20219;-64
2023/02/24 07:16:44;;;;;;;7.10;6.40;;;5.00;99.90;;;;;;5052202;28;20629;-64
2023/02/24 07:19:14;;;;;;;7.33;6.73;;;5.10;99.90;;;;;;5052141;28;20212;-64
2023/02/24 07:21:49;;;;;;;13.20;6.20;;;5.10;99.90;;;;;;5031260;28;20179;-63
2023/02/24 07:24:23;;;;;;;7.63;6.97;;;5.20;99.90;;;;;;5040521;28;20189;-64
2023/02/24 07:26:55;;;;;;;6.10;5.50;;;5.30;99.90;;;;;;5052591;28;20201;-64
2023/02/24 07:29:22;;;;;;;16.20;6.03;;;5.30;99.90;;;;;;5051777;28;20182;-63
2023/02/24 07:31:47;;;;;;;9.60;7.13;;;5.30;99.90;;;;;;5052076;28;20179;-64
2023/02/24 07:34:13;;;;;;;8.47;7.80;;;5.30;99.90;;;;;;5052310;28;20518;-64
2023/02/24 07:36:47;;;;;;;7.30;6.90;;;5.30;99.90;;;;;;5051396;28;20213;-64
2023/02/24 07:39:14;;;;;;;6.93;6.33;;;5.30;99.90;;;;;;5052004;28;20187;-63
2023/02/24 07:41:45;;;;;;;6.97;6.37;;;5.40;99.90;;;;;;5051755;28;20171;-64
2023/02/24 07:44:12;;;;;;;15.17;6.33;;;5.40;99.90;;;;;;5052165;28;20202;-64
2023/02/24 07:46:38;;;;;;;12.80;8.20;;;5.40;99.90;;;;;;5051838;28;20194;-63
2023/02/24 07:49:08;;;;;;;10.87;6.90;;;5.40;99.90;;;;;;5051333;28;20305;-64
2023/02/24 07:51:34;;;;;;;15.93;7.70;;;5.40;99.90;;;;;;5051973;28;20228;-64
2023/02/24 07:54:01;;;;;;;13.07;10.73;;;5.50;99.90;;;;;;5051751;28;20272;-64
2023/02/24 07:56:29;;;;;;;9.77;7.80;;;5.40;99.90;;;;;;5052039;28;20285;-64
2023/02/24 07:59:18;;;;;;;16.97;8.00;;;5.40;99.90;;;;;;5053422;28;20637;-64
2023/02/24 08:01:50;;;;;;;9.53;8.73;;;5.40;99.90;;;;;;5051552;28;20666;-64
2023/02/24 08:04:25;;;;;;;17.07;8.27;;;5.50;99.90;;;;;;5051852;28;20183;-64
2023/02/24 08:06:55;;;;;;;10.83;7.63;;;5.50;99.90;;;;;;5051943;28;20204;-64
2023/02/24 08:10:08;;;;;;;9.13;7.97;;;5.50;99.90;;;;;;5051423;28;20270;-64
2023/02/24 08:12:16;;;;;;;14.73;7.33;;;5.60;99.90;;;;;;5051396;28;20197;-64
2023/02/24 08:14:50;;;;;;;10.37;7.10;;;5.60;99.90;;;;;;5051580;28;20694;-63
2023/02/24 08:17:22;;;;;;;11.50;9.37;;;5.70;99.90;;;;;;5049213;28;20175;-64
2023/02/24 08:19:49;;;;;;;19.57;8.20;;;5.70;99.90;;;;;;5050488;28;20183;-64
2023/02/24 08:22:18;;;;;;;7.93;7.13;;;5.80;99.90;;;;;;5051370;28;20193;-64
2023/02/24 08:24:52;;;;;;;6.70;6.30;;;5.80;99.90;;;;;;5051501;28;20228;-64
2023/02/24 08:27:23;;;;;;;7.60;7.00;;;5.80;99.90;;;;;;5051191;28;20247;-63
2023/02/24 08:29:57;;;;;;;8.47;7.13;;;5.80;99.90;;;;;;5051268;28;20202;-63
2023/02/24 08:32:42;;;;;;;10.83;7.73;;;5.80;99.90;;;;;;5051127;28;20589;-64
2023/02/24 08:35:14;;;;;;;12.97;7.43;;;5.80;99.90;;;;;;5051454;28;20198;-63
2023/02/24 08:37:45;;;;;;;8.37;7.67;;;5.90;99.90;;;;;;5050999;28;20178;-64
2023/02/24 08:41:18;;;;;;;13.50;8.97;;;6.00;99.90;;;;;;5051163;28;20595;-64
2023/02/24 08:43:18;;;;;;;7.57;7.10;;;6.10;99.90;;;;;;5041971;28;20553;-63
2023/02/24 08:45:49;;;;;;;12.37;7.17;;;6.10;99.90;;;;;;5051107;28;20194;-63
2023/02/24 08:48:54;;;;;;;6.70;6.03;;;6.20;99.90;;;;;;5051170;28;20179;-64
2023/02/24 08:51:27;;;;;;;8.83;6.83;;;6.20;99.90;;;;;;5048068;28;20214;-64
2023/02/24 08:53:56;;;;;;;7.93;7.23;;;6.20;99.90;;;;;;5031290;28;20225;-63
2023/02/24 08:56:27;;;;;;;12.07;8.50;;;6.10;99.90;;;;;;5036704;28;20237;-64
2023/02/24 08:59:04;;;;;;;45.13;17.77;;;6.10;99.90;;;;;;5051375;28;20664;-64
2023/02/24 09:01:35;;;;;;;16.83;8.97;;;6.20;99.90;;;;;;5051018;28;20183;-64
2023/02/24 09:04:10;;;;;;;8.80;7.57;;;6.10;99.90;;;;;;5051101;28;20522;-63
2023/02/24 09:06:46;;;;;;;18.10;10.10;;;6.10;99.90;;;;;;5050690;28;20218;-63
2023/02/24 09:09:16;;;;;;;12.20;9.40;;;6.20;99.90;;;;;;5051094;28;20250;-63
2023/02/24 09:11:55;;;;;;;14.63;9.27;;;6.30;99.90;;;;;;5049446;28;20206;-63
2023/02/24 09:14:27;;;;;;;7.20;6.67;;;6.30;99.90;;;;;;5051324;28;20174;-64
2023/02/24 09:17:09;;;;;;;6.60;6.00;;;6.40;99.90;;;;;;5051058;28;20464;-63
2023/02/24 09:22:54;;;;;;;7.60;7.13;;;6.40;99.90;;;;;;5051248;28;20664;-64
2023/02/24 09:25:20;;;;;;;12.50;6.77;;;6.40;99.90;;;;;;5054584;28;20226;-64
2023/02/24 09:28:06;;;;;;;8.10;6.53;;;6.40;99.90;;;;;;5054789;28;20174;-64
2023/02/24 09:30:49;;;;;;;8.40;7.23;;;6.50;99.90;;;;;;5053999;28;20196;-63
2023/02/24 09:33:19;;;;;;;7.73;6.10;;;6.50;99.90;;;;;;5045789;28;20516;-63
2023/02/24 09:35:53;;;;;;;7.77;6.20;;;6.60;99.90;;;;;;5047416;28;20191;-64
2023/02/24 09:39:08;;;;;;;11.73;8.27;;;6.60;99.90;;;;;;5054436;28;20167;-64
2023/02/24 09:41:31;;;;;;;6.97;6.43;;;6.60;99.90;;;;;;5053637;28;20182;-63
2023/02/24 09:44:06;;;;;;;7.40;6.57;;;6.70;99.90;;;;;;5053690;28;20171;-64
2023/02/24 09:46:39;;;;;;;6.20;5.80;;;6.70;99.90;;;;;;5054061;28;20552;-64
2023/02/24 09:49:14;;;;;;;7.63;6.57;;;6.80;99.90;;;;;;5054519;28;20706;-63
2023/02/24 09:51:42;;;;;;;5.87;5.57;;;6.80;99.90;;;;;;5051650;28;20754;-64
2023/02/24 09:54:14;;;;;;;6.00;5.70;;;6.80;99.90;;;;;;5054372;28;20629;-64
2023/02/24 09:57:07;;;;;;;7.30;6.67;;;6.80;99.90;;;;;;5054213;28;20221;-64
2023/02/24 09:59:59;;;;;;;8.43;6.97;;;6.70;99.90;;;;;;5054535;28;20269;-61
2023/02/24 10:02:27;;;;;;;6.40;5.80;;;6.60;99.90;;;;;;5054111;28;20206;-64
2023/02/24 10:05:23;;;;;;;6.60;6.10;;;6.60;99.90;;;;;;5054054;28;20159;-63
2023/02/24 10:07:51;;;;;;;7.73;5.47;;;6.70;99.90;;;;;;5053867;28;20258;-63
2023/02/24 10:10:28;;;;;;;6.77;6.27;;;6.90;99.90;;;;;;5053861;28;20201;-64
2023/02/24 10:13:01;;;;;;;6.90;6.27;;;7.00;99.90;;;;;;5054059;28;20166;-63
2023/02/24 10:15:57;;;;;;;6.97;6.30;;;7.00;99.90;;;;;;5054024;28;20187;-64
2023/02/24 10:18:26;;;;;;;9.50;8.53;;;7.00;99.90;;;;;;5053937;28;20519;-63
2023/02/24 10:20:55;;;;;;;10.87;9.33;;;7.00;99.90;;;;;;5053306;28;20162;-63
2023/02/24 10:23:58;;;;;;;11.00;9.10;;;6.90;99.90;;;;;;5036641;28;20198;-63
2023/02/24 10:26:48;;;;;;;23.47;10.80;;;7.00;99.90;;;;;;5033824;28;20727;-64
2023/02/24 10:29:31;;;;;;;10.63;8.97;;;6.90;99.90;;;;;;5038815;28;20190;-63
2023/02/24 10:32:32;;;;;;;18.23;10.57;;;6.80;99.90;;;;;;5053635;28;20179;-64
2023/02/24 10:35:00;;;;;;;6.17;5.73;;;6.80;99.90;;;;;;5052451;28;20226;-63
2023/02/24 10:37:27;;;;;;;13.00;7.37;;;6.70;99.90;;;;;;5053488;28;20163;-64
2023/02/24 10:40:08;;;;;;;9.80;6.30;;;6.60;99.90;;;;;;5053217;28;20233;-64
2023/02/24 10:42:36;;;;;;;6.53;6.10;;;6.50;99.90;;;;;;5053384;28;20171;-64
2023/02/24 10:45:31;;;;;;;6.47;6.07;;;6.40;99.90;;;;;;5053484;28;20270;-64
2023/02/24 10:47:59;;;;;;;7.67;6.37;;;6.40;99.90;;;;;;5053338;28;20182;-63
2023/02/24 10:50:43;;;;;;;7.53;6.83;;;6.40;99.90;;;;;;5052942;28;20194;-63
2023/02/24 10:53:36;;;;;;;8.47;7.27;;;6.30;99.90;;;;;;5053351;28;20171;-63
2023/02/24 10:56:25;;;;;;;10.67;6.97;;;6.30;99.90;;;;;;5053287;28;20328;-63
2023/02/24 11:02:28;;;;;;;7.67;6.90;;;6.30;99.90;;;;;;5052614;28;20232;-63
2023/02/24 11:07:24;;;;;;;7.63;6.87;;;6.20;99.90;;;;;;5052711;28;20188;-64
2023/02/24 11:10:24;;;;;;;6.47;5.87;;;6.20;99.90;;;;;;5052350;28;20195;-64
2023/02/24 11:18:34;;;;;;;6.60;6.20;;;6.10;99.90;;;;;;5052781;28;20178;-64
2023/02/24 11:21:04;;;;;;;6.47;5.97;;;6.10;99.90;;;;;;5052375;28;20254;-63
2023/02/24 11:23:33;;;;;;;9.13;5.33;;;6.20;99.90;;;;;;5052650;28;20260;-64
2023/02/24 11:26:05;;;;;;;6.23;5.73;;;6.20;99.90;;;;;;5052101;28;20278;-63
2023/02/24 11:28:48;;;;;;;14.40;6.00;;;6.20;99.90;;;;;;5052421;28;20633;-63
2023/02/24 11:31:29;;;;;;;6.23;5.83;;;6.10;99.90;;;;;;5052291;28;20218;-63
2023/02/24 11:34:16;;;;;;;8.03;6.80;;;6.10;99.90;;;;;;5052410;28;20175;-64
2023/02/24 11:36:56;;;;;;;7.30;6.80;;;6.10;99.90;;;;;;5050606;28;20213;-64
2023/02/24 11:39:21;;;;;;;9.43;6.07;;;6.10;99.90;;;;;;5051232;28;20170;-64
2023/02/24 11:42:00;;;;;;;9.27;6.63;;;6.00;99.90;;;;;;5052215;28;20187;-63
2023/02/24 11:44:34;;;;;;;6.53;6.03;;;6.10;99.90;;;;;;5052008;28;20576;-63
2023/02/24 11:47:14;;;;;;;10.60;7.80;;;6.10;99.90;;;;;;5051928;28;20174;-64
2023/02/24 11:49:54;;;;;;;6.83;6.03;;;6.00;99.90;;;;;;5051541;28;20210;-64
2023/02/24 11:52:32;;;;;;;8.57;7.13;;;6.00;99.90;;;;;;5052116;28;20204;-63
2023/02/24 11:55:02;;;;;;;6.97;6.30;;;5.90;99.90;;;;;;5051414;28;20285;-64
2023/02/24 11:57:37;;;;;;;7.70;6.13;;;5.90;99.90;;;;;;5052010;28;20250;-64
2023/02/24 12:00:13;;;;;;;17.63;6.50;;;5.80;99.90;;;;;;5051285;28;20181;-64
2023/02/24 12:02:59;;;;;;;6.27;5.87;;;5.80;99.90;;;;;;5052063;28;20593;-64
2023/02/24 12:05:35;;;;;;;7.33;6.83;;;5.70;99.90;;;;;;5031857;28;20218;-64
2023/02/24 12:08:10;;;;;;;6.67;6.27;;;5.70;99.90;;;;;;5033223;28;20206;-64
2023/02/24 12:10:43;;;;;;;9.57;6.77;;;5.60;99.90;;;;;;5049983;28;20615;-63
2023/02/24 12:13:27;;;;;;;7.27;6.63;;;5.50;99.90;;;;;;5051681;28;20670;-64
2023/02/24 12:16:11;;;;;;;10.00;6.40;;;5.50;99.90;;;;;;5051595;28;20193;-64
2023/02/24 12:18:53;;;;;;;6.80;6.30;;;5.50;99.90;;;;;;5051305;28;20663;-64
2023/02/24 12:21:29;;;;;;;9.20;6.53;;;5.60;99.90;;;;;;5051636;28;20187;-64
2023/02/24 12:23:57;;;;;;;7.10;6.50;;;5.50;99.90;;;;;;5050209;28;20285;-64
2023/02/24 12:26:46;;;;;;;6.73;6.33;;;5.40;99.90;;;;;;5051643;28;20545;-64
2023/02/24 12:29:23;;;;;;;6.00;5.60;;;5.30;99.90;;;;;;5051074;28;20182;-64
2023/02/24 12:32:21;;;;;;;8.43;7.70;;;5.30;99.90;;;;;;5051370;28;20552;-63
2023/02/24 12:35:08;;;;;;;10.43;8.20;;;5.20;99.90;;;;;;5051041;28;20541;-63
2023/02/24 12:37:57;;;;;;;7.77;7.20;;;5.10;99.90;;;;;;5051389;28;20167;-64
2023/02/24 12:40:32;;;;;;;6.50;6.00;;;5.00;99.90;;;;;;5050759;28;20182;-64
2023/02/24 12:43:19;;;;;;;8.33;7.27;;;5.00;99.90;;;;;;5051461;28;20174;-64
2023/02/24 12:46:06;;;;;;;7.20;6.57;;;5.00;99.90;;;;;;5051267;28;20206;-63
2023/02/24 12:49:10;;;;;;;6.90;6.30;;;5.00;99.90;;;;;;5050948;28;20205;-65
2023/02/24 12:52:13;;;;;;;10.13;7.87;;;5.00;99.90;;;;;;5050970;28;20283;-65
2023/02/24 12:55:07;;;;;;;6.87;6.47;;;5.00;99.90;;;;;;5050647;28;20194;-64
2023/02/24 12:57:42;;;;;;;6.53;6.20;;;5.00;99.90;;;;;;5050042;28;20179;-65
2023/02/24 13:00:21;;;;;;;6.80;6.43;;;4.90;99.90;;;;;;5050990;28;20209;-64
2023/02/24 13:03:18;;;;;;;6.10;5.80;;;4.90;99.90;;;;;;5050711;28;20185;-66
2023/02/24 13:05:51;;;;;;;6.27;5.83;;;4.90;99.90;;;;;;5050955;28;20198;-66
2023/02/24 13:08:45;;;;;;;8.57;7.77;;;4.90;99.90;;;;;;5050605;28;20174;-66
2023/02/24 13:11:42;;;;;;;8.03;7.27;;;4.90;99.90;;;;;;5050673;28;20284;-66
2023/02/24 13:14:21;;;;;;;8.87;8.17;;;4.80;99.90;;;;;;5051068;28;20189;-66
2023/02/24 13:16:46;;;;;;;15.63;7.83;;;4.80;99.90;;;;;;5050137;28;20279;-64
2023/02/24 13:19:15;;;;;;;8.00;7.00;;;4.80;99.90;;;;;;5050650;28;20195;-64
2023/02/24 13:21:40;;;;;;;8.67;8.17;;;4.90;99.90;;;;;;5050591;28;20187;-64
2023/02/24 13:24:20;;;;;;;7.80;6.37;;;4.90;99.90;;;;;;5051113;28;20258;-63
2023/02/24 13:26:45;;;;;;;9.03;8.30;;;5.00;99.90;;;;;;5031060;28;20195;-63
2023/02/24 13:29:13;;;;;;;8.37;7.50;;;5.00;99.90;;;;;;5030804;28;20680;-64
2023/02/24 13:31:51;;;;;;;7.03;6.40;;;4.90;99.90;;;;;;5049938;28;20206;-64
2023/02/24 13:34:32;;;;;;;6.33;5.87;;;5.00;99.90;;;;;;5050772;28;20171;-64
2023/02/24 13:36:58;;;;;;;6.80;6.40;;;5.00;99.90;;;;;;5050362;28;20210;-65
2023/02/24 13:39:33;;;;;;;8.73;6.30;;;5.00;99.90;;;;;;5050291;28;20208;-64
2023/02/24 13:42:04;;;;;;;8.07;6.60;;;5.00;99.90;;;;;;5050826;28;20182;-64
2023/02/24 13:44:30;;;;;;;7.03;6.63;;;5.10;99.90;;;;;;5031615;28;20178;-65
2023/02/24 13:47:29;;;;;;;7.67;7.10;;;5.10;99.90;;;;;;5031037;28;20278;-65